createdAt,value
2022-10-29T00:04:23.025Z,4.37
2022-10-29T00:09:28.606Z,3.37
2022-10-29T00:14:34.404Z,3.67
2022-10-29T00:19:39.877Z,4.97
2022-10-29T00:24:45.555Z,4.17
2022-10-29T00:29:51.004Z,4.07
2022-10-29T00:34:56.516Z,4.03
2022-10-29T00:40:01.897Z,3.70
2022-10-29T00:45:09.529Z,4.17
2022-10-29T00:50:16.125Z,4.07
2022-10-29T00:55:22.081Z,4.37
2022-10-29T01:00:28.028Z,4.03
2022-10-29T01:05:36.252Z,4.37
2022-10-29T01:10:50.729Z,4.30
2022-10-29T01:16:21.953Z,5.00
2022-10-29T01:21:42.897Z,4.37
2022-10-29T01:27:17.208Z,4.70
2022-10-29T01:32:34.455Z,4.80
2022-10-29T01:37:51.690Z,5.63
2022-10-29T01:43:09.193Z,5.50
2022-10-29T01:48:20.399Z,6.23
2022-10-29T01:53:28.041Z,6.60
2022-10-29T01:58:35.375Z,5.60
2022-10-29T02:03:55.974Z,5.03
2022-10-29T02:09:30.274Z,5.23
2022-10-29T02:14:38.784Z,5.97
2022-10-29T02:19:44.629Z,5.47
2022-10-29T02:24:50.409Z,5.33
2022-10-29T02:29:55.807Z,6.40
2022-10-29T02:35:02.541Z,5.30
2022-10-29T02:40:09.091Z,6.53
2022-10-29T02:45:14.561Z,5.90
2022-10-29T02:50:20.122Z,5.60
2022-10-29T02:55:25.564Z,6.80
2022-10-29T03:00:30.965Z,6.23
2022-10-29T03:05:37.876Z,6.63
2022-10-29T03:10:43.535Z,6.00
2022-10-29T03:15:48.993Z,6.67
2022-10-29T03:20:54.532Z,7.27
2022-10-29T03:26:00.091Z,6.47
2022-10-29T03:31:06.508Z,7.20
2022-10-29T03:36:12.134Z,7.23
2022-10-29T03:41:17.655Z,5.97
2022-10-29T03:46:23.123Z,6.43
2022-10-29T03:51:28.740Z,7.33
2022-10-29T03:56:34.194Z,7.03
2022-10-29T04:01:39.729Z,7.23
2022-10-29T04:06:45.503Z,7.00
2022-10-29T04:11:51.045Z,7.43
2022-10-29T04:16:56.575Z,8.03
2022-10-29T04:24:06.418Z,8.03
2022-10-29T04:28:17.996Z,7.87
2022-10-29T04:32:16.376Z,7.07
2022-10-29T04:37:21.869Z,8.50
2022-10-29T04:42:27.262Z,7.37
2022-10-29T04:47:32.895Z,8.10
2022-10-29T04:52:38.288Z,7.43
2022-10-29T04:57:43.766Z,7.10
2022-10-29T05:02:51.448Z,8.40
2022-10-29T05:08:01.508Z,8.33
2022-10-29T05:13:12.756Z,7.47
2022-10-29T05:18:18.720Z,7.97
2022-10-29T05:23:25.063Z,7.83
2022-10-29T05:28:30.614Z,7.87
2022-10-29T05:33:36.076Z,7.70
2022-10-29T05:38:41.468Z,7.50
2022-10-29T05:43:51.380Z,8.63
2022-10-29T05:48:57.043Z,8.40
2022-10-29T05:54:02.700Z,9.20
2022-10-29T05:59:08.213Z,9.20
2022-10-29T06:04:13.643Z,9.13
2022-10-29T06:09:19.124Z,8.33
2022-10-29T06:14:25.215Z,7.87
2022-10-29T06:19:30.702Z,8.30
2022-10-29T06:24:36.327Z,8.47
2022-10-29T06:29:41.865Z,8.80
2022-10-29T06:34:47.390Z,8.57
2022-10-29T06:39:52.985Z,8.63
2022-10-29T06:44:58.961Z,8.77
2022-10-29T06:50:04.826Z,7.77
2022-10-29T06:55:11.281Z,8.47
2022-10-29T07:00:17.129Z,8.90
2022-10-29T07:05:22.879Z,8.53
2022-10-29T07:10:30.415Z,8.20
2022-10-29T07:15:36.111Z,7.30
2022-10-29T07:20:44.500Z,8.23
2022-10-29T07:25:51.423Z,7.37
2022-10-29T07:30:59.857Z,7.63
2022-10-29T07:36:05.892Z,7.47
2022-10-29T07:41:11.583Z,8.07
2022-10-29T07:46:17.047Z,7.07
2022-10-29T07:51:22.561Z,6.70
2022-10-29T07:56:28.094Z,7.37
2022-10-29T08:01:34.729Z,9.40
2022-10-29T08:06:40.775Z,8.10
2022-10-29T08:16:55.006Z,7.30
2022-10-29T08:22:00.828Z,7.40
2022-10-29T08:27:06.463Z,7.73
2022-10-29T08:32:11.950Z,6.37
2022-10-29T08:37:17.550Z,5.80
2022-10-29T08:42:48.433Z,6.30
2022-10-29T08:48:15.019Z,6.00
2022-10-29T08:53:30.053Z,4.90
2022-10-29T08:58:39.597Z,4.87
2022-10-29T09:03:47.791Z,5.03
2022-10-29T09:09:05.347Z,5.37
2022-10-29T09:14:28.625Z,4.80
2022-10-29T09:19:39.905Z,5.13
2022-10-29T09:24:48.417Z,4.60
2022-10-29T09:29:56.948Z,4.87
2022-10-29T09:35:05.487Z,4.50
2022-10-29T09:40:35.068Z,4.40
2022-10-29T09:45:52.217Z,4.73
2022-10-29T09:51:00.656Z,4.37
2022-10-29T09:56:08.313Z,3.77
2022-10-29T10:01:14.936Z,3.77
2022-10-29T10:06:20.686Z,2.57
2022-10-29T10:11:28.584Z,3.43
2022-10-29T10:16:34.821Z,3.30
2022-10-29T10:21:40.556Z,3.47
2022-10-29T10:26:46.096Z,3.73
2022-10-29T10:32:00.188Z,3.97
2022-10-29T10:37:08.759Z,4.30
2022-10-29T10:42:39.634Z,3.83
2022-10-29T10:47:50.930Z,3.57
2022-10-29T10:52:59.350Z,3.53
2022-10-29T10:58:16.958Z,3.50
2022-10-29T11:03:41.717Z,3.53
2022-10-29T11:09:02.201Z,3.30
2022-10-29T11:14:29.071Z,3.20
2022-10-29T11:19:43.549Z,3.87
2022-10-29T11:24:57.775Z,3.53
2022-10-29T11:30:09.070Z,4.50
2022-10-29T11:35:17.515Z,4.07
2022-10-29T11:40:28.794Z,3.50
2022-10-29T11:45:52.402Z,2.90
2022-10-29T11:51:09.809Z,2.50
2022-10-29T11:56:26.991Z,2.60
2022-10-29T12:01:50.635Z,2.47
2022-10-29T12:07:01.807Z,2.10
2022-10-29T12:12:13.184Z,2.50
2022-10-29T12:17:27.347Z,2.20
2022-10-29T12:23:02.511Z,2.30
2022-10-29T12:28:14.300Z,2.40
2022-10-29T12:33:22.735Z,2.43
2022-10-29T12:38:40.495Z,2.70
2022-10-29T12:43:47.061Z,2.60
2022-10-29T12:49:01.675Z,3.00
2022-10-29T12:54:19.073Z,2.43
2022-10-29T12:59:30.858Z,2.67
2022-10-29T13:04:36.322Z,3.03
2022-10-29T13:09:44.319Z,2.70
2022-10-29T13:14:55.009Z,2.50
2022-10-29T13:20:03.372Z,3.37
2022-10-29T13:25:41.539Z,2.80
2022-10-29T13:30:52.902Z,3.47
2022-10-29T13:36:01.320Z,2.70
2022-10-29T13:41:12.790Z,3.10
2022-10-29T13:46:21.373Z,2.80
2022-10-29T13:51:33.557Z,4.03
2022-10-29T13:56:57.132Z,2.93
2022-10-29T14:02:32.986Z,3.33
2022-10-29T14:07:57.110Z,3.30
2022-10-29T14:13:08.778Z,3.30
2022-10-29T14:18:28.472Z,3.90
2022-10-29T14:23:34.593Z,3.47
2022-10-29T14:28:40.128Z,3.10
2022-10-29T14:33:48.764Z,3.50
2022-10-29T14:39:00.039Z,3.60
2022-10-29T14:44:08.528Z,4.03
2022-10-29T14:49:22.773Z,3.63
2022-10-29T14:54:31.157Z,3.70
2022-10-29T14:59:37.562Z,3.97
2022-10-29T15:05:00.705Z,3.90
2022-10-29T15:10:20.656Z,3.90
2022-10-29T15:15:29.283Z,3.70
2022-10-29T15:20:46.455Z,3.87
2022-10-29T15:25:54.984Z,4.10
2022-10-29T15:31:03.331Z,3.97
2022-10-29T15:36:09.438Z,4.07
2022-10-29T15:41:39.064Z,3.53
2022-10-29T15:46:52.330Z,4.13
2022-10-29T15:52:00.779Z,3.93
2022-10-29T15:57:07.111Z,4.27
2022-10-29T16:02:20.786Z,4.03
2022-10-29T16:07:26.794Z,3.83
2022-10-29T16:12:33.510Z,4.07
2022-10-29T16:17:39.395Z,4.33
2022-10-29T16:22:45.404Z,4.03
2022-10-29T16:27:51.030Z,3.80
2022-10-29T16:32:57.372Z,3.70
2022-10-29T16:38:02.988Z,3.97
2022-10-29T16:43:09.655Z,4.30
2022-10-29T16:48:15.197Z,4.40
2022-10-29T16:53:20.864Z,4.47
2022-10-29T16:58:26.334Z,4.13
2022-10-29T17:03:33.360Z,4.60
2022-10-29T17:08:40.105Z,4.10
2022-10-29T17:13:45.550Z,4.10
2022-10-29T17:18:52.121Z,4.40
2022-10-29T17:23:57.830Z,5.03
2022-10-29T17:29:03.303Z,4.00
2022-10-29T17:34:08.882Z,4.83
2022-10-29T17:39:14.417Z,5.95
2022-10-29T17:44:20.530Z,6.12
2022-10-29T17:49:26.505Z,4.77
2022-10-29T17:54:34.979Z,4.60
2022-10-29T17:59:39.361Z,4.23
2022-10-29T18:04:46.875Z,3.97
2022-10-29T18:09:52.348Z,5.00
2022-10-29T18:14:59.262Z,4.67
2022-10-29T18:20:05.763Z,4.83
2022-10-29T18:25:12.866Z,4.73
2022-10-29T18:30:20.107Z,4.57
2022-10-29T18:35:27.420Z,4.43
2022-10-29T18:40:33.036Z,5.07
2022-10-29T18:45:38.516Z,4.93
2022-10-29T18:50:44.130Z,5.03
2022-10-29T18:55:52.140Z,4.37
2022-10-29T19:01:00.958Z,5.10
2022-10-29T19:06:09.498Z,5.47
2022-10-29T19:11:17.829Z,5.57
2022-10-29T19:16:24.233Z,7.33
2022-10-29T19:21:30.284Z,9.13
2022-10-29T19:26:37.806Z,8.60
2022-10-29T19:31:46.243Z,9.20
2022-10-29T19:36:51.714Z,7.70
2022-10-29T19:41:57.262Z,8.17
2022-10-29T19:47:02.807Z,7.53
2022-10-29T19:52:08.369Z,7.73
2022-10-29T19:57:13.848Z,7.80
2022-10-29T20:02:19.666Z,6.80
2022-10-29T20:07:25.251Z,7.70
2022-10-29T20:12:31.242Z,8.03
2022-10-29T20:17:36.764Z,7.47
2022-10-29T20:22:42.289Z,7.80
2022-10-29T20:27:49.244Z,9.83
2022-10-29T20:32:55.608Z,7.40
2022-10-29T20:38:01.561Z,7.73
2022-10-29T20:43:07.383Z,7.67
2022-10-29T20:48:13.019Z,7.37
2022-10-29T20:53:18.570Z,8.83
2022-10-29T20:58:24.370Z,8.07
2022-10-29T21:03:29.837Z,6.73
2022-10-29T21:08:35.744Z,8.73
2022-10-29T21:13:41.597Z,7.33
2022-10-29T21:18:50.336Z,7.07
2022-10-29T21:23:55.868Z,7.47
2022-10-29T21:29:01.539Z,6.10
2022-10-29T21:34:07.142Z,6.10
2022-10-29T21:39:12.646Z,6.47
2022-10-29T21:44:18.189Z,6.93
2022-10-29T21:49:23.681Z,7.23
2022-10-29T21:54:29.219Z,6.53
2022-10-29T21:59:34.804Z,5.93
2022-10-29T22:04:40.375Z,6.77
2022-10-29T22:09:45.996Z,7.37
2022-10-29T22:14:51.445Z,6.60
2022-10-29T22:19:58.922Z,6.00
2022-10-29T22:25:04.921Z,5.97
2022-10-29T22:30:11.176Z,6.73
2022-10-29T22:35:17.293Z,7.07
2022-10-29T22:40:22.683Z,7.80
2022-10-29T22:45:28.150Z,6.53
2022-10-29T22:50:33.615Z,7.33
2022-10-29T22:55:39.186Z,7.27
2022-10-29T23:00:44.780Z,7.30
2022-10-29T23:05:58.102Z,6.90
2022-10-29T23:11:09.036Z,7.40
2022-10-29T23:16:14.970Z,7.07
2022-10-29T23:21:21.272Z,8.10
2022-10-29T23:26:27.606Z,7.37
2022-10-29T23:31:33.761Z,6.97
2022-10-29T23:36:39.374Z,7.10
2022-10-29T23:41:44.834Z,5.80
2022-10-29T23:46:50.298Z,6.77
2022-10-29T23:51:55.694Z,7.23
2022-10-29T23:57:01.173Z,7.07
